sensor_id;sensor_type;location;lat;lon;timestamp;temperature;humidity
68248;SHT30;55064;49.636;12.164;2022-09-02T00:01:02;11.39;77.38
68248;SHT30;55064;49.636;12.164;2022-09-02T00:03:33;11.46;77.22
68248;SHT30;55064;49.636;12.164;2022-09-02T00:06:03;11.45;77.33
68248;SHT30;55064;49.636;12.164;2022-09-02T00:08:30;11.39;77.80
68248;SHT30;55064;49.636;12.164;2022-09-02T00:11:01;11.41;77.97
68248;SHT30;55064;49.636;12.164;2022-09-02T00:13:28;11.23;78.79
68248;SHT30;55064;49.636;12.164;2022-09-02T00:15:54;11.20;78.57
68248;SHT30;55064;49.636;12.164;2022-09-02T00:18:19;11.11;79.00
68248;SHT30;55064;49.636;12.164;2022-09-02T00:20:46;11.13;79.26
68248;SHT30;55064;49.636;12.164;2022-09-02T00:23:12;11.16;78.95
68248;SHT30;55064;49.636;12.164;2022-09-02T00:25:41;11.04;79.20
68248;SHT30;55064;49.636;12.164;2022-09-02T00:28:12;11.01;79.69
68248;SHT30;55064;49.636;12.164;2022-09-02T00:30:40;10.95;79.48
68248;SHT30;55064;49.636;12.164;2022-09-02T00:33:07;10.97;80.01
68248;SHT30;55064;49.636;12.164;2022-09-02T00:35:33;11.01;79.42
68248;SHT30;55064;49.636;12.164;2022-09-02T00:37:58;11.14;78.64
68248;SHT30;55064;49.636;12.164;2022-09-02T00:40:27;11.16;78.87
68248;SHT30;55064;49.636;12.164;2022-09-02T00:42:53;11.04;79.55
68248;SHT30;55064;49.636;12.164;2022-09-02T00:45:23;10.93;80.07
68248;SHT30;55064;49.636;12.164;2022-09-02T00:47:49;10.97;79.84
68248;SHT30;55064;49.636;12.164;2022-09-02T00:50:22;10.99;79.48
68248;SHT30;55064;49.636;12.164;2022-09-02T00:52:52;11.00;79.27
68248;SHT30;55064;49.636;12.164;2022-09-02T00:55:23;11.07;78.88
68248;SHT30;55064;49.636;12.164;2022-09-02T00:58:04;11.01;78.94
68248;SHT30;55064;49.636;12.164;2022-09-02T01:00:36;11.03;78.86
68248;SHT30;55064;49.636;12.164;2022-09-02T01:03:15;11.03;78.97
68248;SHT30;55064;49.636;12.164;2022-09-02T01:05:46;10.96;79.27
68248;SHT30;55064;49.636;12.164;2022-09-02T01:08:17;10.99;78.96
68248;SHT30;55064;49.636;12.164;2022-09-02T01:10:44;11.06;78.36
68248;SHT30;55064;49.636;12.164;2022-09-02T01:13:15;11.03;78.71
68248;SHT30;55064;49.636;12.164;2022-09-02T01:15:44;10.99;78.77
68248;SHT30;55064;49.636;12.164;2022-09-02T01:18:15;10.92;78.98
68248;SHT30;55064;49.636;12.164;2022-09-02T01:20:44;10.87;79.26
68248;SHT30;55064;49.636;12.164;2022-09-02T01:23:13;10.80;79.58
68248;SHT30;55064;49.636;12.164;2022-09-02T01:25:38;10.75;79.89
68248;SHT30;55064;49.636;12.164;2022-09-02T01:28:07;10.63;80.26
68248;SHT30;55064;49.636;12.164;2022-09-02T01:30:34;10.59;80.39
68248;SHT30;55064;49.636;12.164;2022-09-02T01:33:02;10.63;80.46
68248;SHT30;55064;49.636;12.164;2022-09-02T01:35:28;10.55;80.73
68248;SHT30;55064;49.636;12.164;2022-09-02T01:37:57;10.46;81.44
68248;SHT30;55064;49.636;12.164;2022-09-02T01:40:29;10.45;81.04
68248;SHT30;55064;49.636;12.164;2022-09-02T01:43:01;10.49;80.69
68248;SHT30;55064;49.636;12.164;2022-09-02T01:45:27;10.45;81.09
68248;SHT30;55064;49.636;12.164;2022-09-02T01:47:56;10.45;80.52
68248;SHT30;55064;49.636;12.164;2022-09-02T01:50:24;10.46;80.65
68248;SHT30;55064;49.636;12.164;2022-09-02T01:52:49;10.44;81.53
68248;SHT30;55064;49.636;12.164;2022-09-02T01:55:17;10.44;81.45
68248;SHT30;55064;49.636;12.164;2022-09-02T01:57:42;10.25;82.56
68248;SHT30;55064;49.636;12.164;2022-09-02T02:00:09;10.31;82.11
68248;SHT30;55064;49.636;12.164;2022-09-02T02:02:41;10.38;81.11
68248;SHT30;55064;49.636;12.164;2022-09-02T02:05:09;10.20;82.40
68248;SHT30;55064;49.636;12.164;2022-09-02T02:07:41;10.18;81.89
68248;SHT30;55064;49.636;12.164;2022-09-02T02:10:10;10.17;82.40
68248;SHT30;55064;49.636;12.164;2022-09-02T02:12:39;10.13;82.46
68248;SHT30;55064;49.636;12.164;2022-09-02T02:15:08;10.10;82.69
68248;SHT30;55064;49.636;12.164;2022-09-02T02:17:35;10.11;82.47
68248;SHT30;55064;49.636;12.164;2022-09-02T02:20:04;10.03;82.77
68248;SHT30;55064;49.636;12.164;2022-09-02T02:22:32;9.97;82.67
68248;SHT30;55064;49.636;12.164;2022-09-02T02:24:58;9.98;82.73
68248;SHT30;55064;49.636;12.164;2022-09-02T02:27:25;10.06;82.70
68248;SHT30;55064;49.636;12.164;2022-09-02T02:29:51;10.01;82.54
68248;SHT30;55064;49.636;12.164;2022-09-02T02:32:20;10.03;82.15
68248;SHT30;55064;49.636;12.164;2022-09-02T02:34:46;9.97;82.45
68248;SHT30;55064;49.636;12.164;2022-09-02T02:37:14;9.98;82.22
68248;SHT30;55064;49.636;12.164;2022-09-02T02:39:41;9.98;82.49
68248;SHT30;55064;49.636;12.164;2022-09-02T02:42:11;9.98;82.08
68248;SHT30;55064;49.636;12.164;2022-09-02T02:44:40;9.97;82.46
68248;SHT30;55064;49.636;12.164;2022-09-02T02:47:08;9.91;82.24
68248;SHT30;55064;49.636;12.164;2022-09-02T02:49:41;9.90;82.36
68248;SHT30;55064;49.636;12.164;2022-09-02T02:52:10;9.85;82.58
68248;SHT30;55064;49.636;12.164;2022-09-02T02:54:39;9.85;83.34
68248;SHT30;55064;49.636;12.164;2022-09-02T02:57:08;9.85;82.48
68248;SHT30;55064;49.636;12.164;2022-09-02T02:59:34;9.82;82.59
68248;SHT30;55064;49.636;12.164;2022-09-02T03:02:03;9.82;82.92
68248;SHT30;55064;49.636;12.164;2022-09-02T03:04:29;9.75;82.93
68248;SHT30;55064;49.636;12.164;2022-09-02T03:06:56;9.80;82.92
68248;SHT30;55064;49.636;12.164;2022-09-02T03:09:22;9.72;83.09
68248;SHT30;55064;49.636;12.164;2022-09-02T03:11:48;9.79;83.12
68248;SHT30;55064;49.636;12.164;2022-09-02T03:14:16;9.69;83.43
68248;SHT30;55064;49.636;12.164;2022-09-02T03:16:46;9.62;83.80
68248;SHT30;55064;49.636;12.164;2022-09-02T03:19:12;9.62;83.47
68248;SHT30;55064;49.636;12.164;2022-09-02T03:21:41;9.55;84.23
68248;SHT30;55064;49.636;12.164;2022-09-02T03:24:08;9.46;83.81
68248;SHT30;55064;49.636;12.164;2022-09-02T03:26:37;9.43;84.63
68248;SHT30;55064;49.636;12.164;2022-09-02T03:29:04;9.36;84.91
68248;SHT30;55064;49.636;12.164;2022-09-02T03:31:30;9.36;84.75
68248;SHT30;55064;49.636;12.164;2022-09-02T03:33:58;9.39;83.92
68248;SHT30;55064;49.636;12.164;2022-09-02T03:36:33;9.39;84.70
68248;SHT30;55064;49.636;12.164;2022-09-02T03:39:00;9.45;83.79
68248;SHT30;55064;49.636;12.164;2022-09-02T03:41:28;9.41;83.47
68248;SHT30;55064;49.636;12.164;2022-09-02T03:43:53;9.42;84.05
68248;SHT30;55064;49.636;12.164;2022-09-02T03:46:19;9.32;84.28
68248;SHT30;55064;49.636;12.164;2022-09-02T03:48:45;9.35;84.58
68248;SHT30;55064;49.636;12.164;2022-09-02T03:51:11;9.35;84.01
68248;SHT30;55064;49.636;12.164;2022-09-02T03:53:37;9.32;84.25
68248;SHT30;55064;49.636;12.164;2022-09-02T03:56:08;9.24;84.40
68248;SHT30;55064;49.636;12.164;2022-09-02T03:58:35;9.32;83.72
68248;SHT30;55064;49.636;12.164;2022-09-02T04:01:01;9.31;83.43
68248;SHT30;55064;49.636;12.164;2022-09-02T04:03:27;9.34;84.18
68248;SHT30;55064;49.636;12.164;2022-09-02T04:05:54;9.31;84.38
68248;SHT30;55064;49.636;12.164;2022-09-02T04:08:20;9.35;84.09
68248;SHT30;55064;49.636;12.164;2022-09-02T04:10:46;9.21;84.37
68248;SHT30;55064;49.636;12.164;2022-09-02T04:13:12;9.28;83.99
68248;SHT30;55064;49.636;12.164;2022-09-02T04:15:41;9.31;83.78
68248;SHT30;55064;49.636;12.164;2022-09-02T04:21:38;9.25;84.14
68248;SHT30;55064;49.636;12.164;2022-09-02T04:24:08;9.21;84.70
68248;SHT30;55064;49.636;12.164;2022-09-02T04:26:36;9.22;84.21
68248;SHT30;55064;49.636;12.164;2022-09-02T04:29:02;9.07;85.72
68248;SHT30;55064;49.636;12.164;2022-09-02T04:31:28;9.15;84.73
68248;SHT30;55064;49.636;12.164;2022-09-02T04:33:55;9.04;85.80
68248;SHT30;55064;49.636;12.164;2022-09-02T04:36:24;8.90;85.51
68248;SHT30;55064;49.636;12.164;2022-09-02T04:38:52;8.90;86.03
68248;SHT30;55064;49.636;12.164;2022-09-02T04:41:23;8.80;86.32
68248;SHT30;55064;49.636;12.164;2022-09-02T04:43:50;8.93;85.06
68248;SHT30;55064;49.636;12.164;2022-09-02T04:46:17;8.93;85.60
68248;SHT30;55064;49.636;12.164;2022-09-02T04:48:47;8.96;85.91
68248;SHT30;55064;49.636;12.164;2022-09-02T04:51:17;9.00;85.61
68248;SHT30;55064;49.636;12.164;2022-09-02T04:53:47;9.01;85.98
68248;SHT30;55064;49.636;12.164;2022-09-02T04:56:25;8.93;86.57
68248;SHT30;55064;49.636;12.164;2022-09-02T04:58:54;8.86;86.62
68248;SHT30;55064;49.636;12.164;2022-09-02T05:01:22;8.88;86.14
68248;SHT30;55064;49.636;12.164;2022-09-02T05:03:51;8.97;86.10
68248;SHT30;55064;49.636;12.164;2022-09-02T05:06:20;9.03;86.26
68248;SHT30;55064;49.636;12.164;2022-09-02T05:08:46;9.10;85.66
68248;SHT30;55064;49.636;12.164;2022-09-02T05:11:20;8.96;86.74
68248;SHT30;55064;49.636;12.164;2022-09-02T05:13:47;8.99;87.19
68248;SHT30;55064;49.636;12.164;2022-09-02T05:16:17;9.03;86.57
68248;SHT30;55064;49.636;12.164;2022-09-02T05:18:45;9.01;87.22
68248;SHT30;55064;49.636;12.164;2022-09-02T05:21:13;9.15;86.08
68248;SHT30;55064;49.636;12.164;2022-09-02T05:23:42;9.17;86.49
68248;SHT30;55064;49.636;12.164;2022-09-02T05:26:09;9.31;85.23
68248;SHT30;55064;49.636;12.164;2022-09-02T05:28:39;9.35;86.21
68248;SHT30;55064;49.636;12.164;2022-09-02T05:31:11;9.42;85.90
68248;SHT30;55064;49.636;12.164;2022-09-02T05:33:37;9.45;85.44
68248;SHT30;55064;49.636;12.164;2022-09-02T05:36:09;9.52;85.71
68248;SHT30;55064;49.636;12.164;2022-09-02T05:38:38;9.59;85.16
68248;SHT30;55064;49.636;12.164;2022-09-02T05:41:10;9.70;84.99
68248;SHT30;55064;49.636;12.164;2022-09-02T05:43:40;9.73;84.87
68248;SHT30;55064;49.636;12.164;2022-09-02T05:46:07;9.79;83.96
68248;SHT30;55064;49.636;12.164;2022-09-02T05:48:34;9.87;84.48
68248;SHT30;55064;49.636;12.164;2022-09-02T05:51:20;9.96;83.19
68248;SHT30;55064;49.636;12.164;2022-09-02T05:53:54;9.98;83.60
68248;SHT30;55064;49.636;12.164;2022-09-02T05:56:23;10.07;83.70
68248;SHT30;55064;49.636;12.164;2022-09-02T05:58:49;10.13;83.80
68248;SHT30;55064;49.636;12.164;2022-09-02T06:01:16;10.20;82.89
68248;SHT30;55064;49.636;12.164;2022-09-02T06:03:46;10.21;83.18
68248;SHT30;55064;49.636;12.164;2022-09-02T06:06:12;10.25;82.88
68248;SHT30;55064;49.636;12.164;2022-09-02T06:08:37;10.38;82.58
68248;SHT30;55064;49.636;12.164;2022-09-02T06:11:08;10.45;82.53
68248;SHT30;55064;49.636;12.164;2022-09-02T06:13:36;10.46;83.12
68248;SHT30;55064;49.636;12.164;2022-09-02T06:16:01;10.52;83.40
68248;SHT30;55064;49.636;12.164;2022-09-02T06:18:27;10.59;83.53
68248;SHT30;55064;49.636;12.164;2022-09-02T06:20:53;10.68;82.80
68248;SHT30;55064;49.636;12.164;2022-09-02T06:23:23;10.76;83.42
68248;SHT30;55064;49.636;12.164;2022-09-02T06:25:50;10.92;83.24
68248;SHT30;55064;49.636;12.164;2022-09-02T06:28:16;11.10;82.71
68248;SHT30;55064;49.636;12.164;2022-09-02T06:30:45;11.30;82.43
68248;SHT30;55064;49.636;12.164;2022-09-02T06:33:16;11.41;82.04
68248;SHT30;55064;49.636;12.164;2022-09-02T06:35:44;11.52;82.62
68248;SHT30;55064;49.636;12.164;2022-09-02T06:38:11;11.63;82.56
68248;SHT30;55064;49.636;12.164;2022-09-02T06:40:53;11.68;83.20
68248;SHT30;55064;49.636;12.164;2022-09-02T06:43:24;11.78;82.83
68248;SHT30;55064;49.636;12.164;2022-09-02T06:45:49;11.99;82.27
68248;SHT30;55064;49.636;12.164;2022-09-02T06:48:17;12.12;81.93
68248;SHT30;55064;49.636;12.164;2022-09-02T06:50:45;12.92;78.08
68248;SHT30;55064;49.636;12.164;2022-09-02T06:53:13;13.79;73.29
68248;SHT30;55064;49.636;12.164;2022-09-02T06:55:43;14.33;70.40
68248;SHT30;55064;49.636;12.164;2022-09-02T06:58:09;14.49;69.81
68248;SHT30;55064;49.636;12.164;2022-09-02T07:00:35;14.63;68.68
68248;SHT30;55064;49.636;12.164;2022-09-02T07:03:02;14.85;68.32
68248;SHT30;55064;49.636;12.164;2022-09-02T07:05:46;14.91;67.86
68248;SHT30;55064;49.636;12.164;2022-09-02T07:08:12;14.81;67.33
68248;SHT30;55064;49.636;12.164;2022-09-02T07:10:40;15.04;67.38
68248;SHT30;55064;49.636;12.164;2022-09-02T07:13:08;15.14;67.08
68248;SHT30;55064;49.636;12.164;2022-09-02T07:15:33;15.18;67.49
68248;SHT30;55064;49.636;12.164;2022-09-02T07:17:59;15.33;66.92
68248;SHT30;55064;49.636;12.164;2022-09-02T07:20:25;15.36;66.99
68248;SHT30;55064;49.636;12.164;2022-09-02T07:22:53;15.24;66.45
68248;SHT30;55064;49.636;12.164;2022-09-02T07:25:24;15.39;65.28
68248;SHT30;55064;49.636;12.164;2022-09-02T07:27:50;15.57;64.84
68248;SHT30;55064;49.636;12.164;2022-09-02T07:30:20;15.51;64.66
68248;SHT30;55064;49.636;12.164;2022-09-02T07:32:46;15.57;64.77
68248;SHT30;55064;49.636;12.164;2022-09-02T07:35:12;15.69;63.96
68248;SHT30;55064;49.636;12.164;2022-09-02T07:37:37;15.79;63.78
68248;SHT30;55064;49.636;12.164;2022-09-02T07:40:04;15.77;63.78
68248;SHT30;55064;49.636;12.164;2022-09-02T07:42:30;15.75;63.86
68248;SHT30;55064;49.636;12.164;2022-09-02T07:44:57;15.84;63.61
68248;SHT30;55064;49.636;12.164;2022-09-02T07:47:25;16.01;64.13
68248;SHT30;55064;49.636;12.164;2022-09-02T07:49:51;16.03;62.93
68248;SHT30;55064;49.636;12.164;2022-09-02T07:52:16;16.06;61.52
68248;SHT30;55064;49.636;12.164;2022-09-02T07:54:44;16.16;62.36
68248;SHT30;55064;49.636;12.164;2022-09-02T07:57:09;16.13;61.13
68248;SHT30;55064;49.636;12.164;2022-09-02T07:59:38;16.19;59.91
68248;SHT30;55064;49.636;12.164;2022-09-02T08:02:07;16.64;59.51
68248;SHT30;55064;49.636;12.164;2022-09-02T08:04:33;16.87;58.92
68248;SHT30;55064;49.636;12.164;2022-09-02T08:06:59;17.47;57.91
68248;SHT30;55064;49.636;12.164;2022-09-02T08:09:25;17.37;57.07
68248;SHT30;55064;49.636;12.164;2022-09-02T08:11:51;17.26;58.15
68248;SHT30;55064;49.636;12.164;2022-09-02T08:14:24;17.59;56.81
68248;SHT30;55064;49.636;12.164;2022-09-02T08:16:54;17.63;56.92
68248;SHT30;55064;49.636;12.164;2022-09-02T08:19:21;17.30;56.39
68248;SHT30;55064;49.636;12.164;2022-09-02T08:21:49;17.33;57.38
68248;SHT30;55064;49.636;12.164;2022-09-02T08:24:16;17.71;56.26
68248;SHT30;55064;49.636;12.164;2022-09-02T08:26:42;17.66;55.56
68248;SHT30;55064;49.636;12.164;2022-09-02T08:29:08;17.53;56.26
68248;SHT30;55064;49.636;12.164;2022-09-02T08:31:35;17.74;55.46
68248;SHT30;55064;49.636;12.164;2022-09-02T08:34:04;17.82;55.46
68248;SHT30;55064;49.636;12.164;2022-09-02T08:36:29;17.88;54.26
68248;SHT30;55064;49.636;12.164;2022-09-02T08:38:55;18.12;53.63
68248;SHT30;55064;49.636;12.164;2022-09-02T08:41:24;18.10;54.26
68248;SHT30;55064;49.636;12.164;2022-09-02T08:43:55;17.78;53.30
68248;SHT30;55064;49.636;12.164;2022-09-02T08:46:26;17.94;53.66
68248;SHT30;55064;49.636;12.164;2022-09-02T08:49:13;18.06;53.99
68248;SHT30;55064;49.636;12.164;2022-09-02T08:51:53;18.21;53.01
68248;SHT30;55064;49.636;12.164;2022-09-02T08:54:49;18.42;53.26
68248;SHT30;55064;49.636;12.164;2022-09-02T08:57:16;18.42;52.24
68248;SHT30;55064;49.636;12.164;2022-09-02T08:59:44;18.47;51.91
68248;SHT30;55064;49.636;12.164;2022-09-02T09:05:54;18.56;51.70
68248;SHT30;55064;49.636;12.164;2022-09-02T09:08:21;18.80;50.60
68248;SHT30;55064;49.636;12.164;2022-09-02T09:10:58;18.81;50.06
68248;SHT30;55064;49.636;12.164;2022-09-02T09:19:04;19.05;49.06
68248;SHT30;55064;49.636;12.164;2022-09-02T09:21:33;19.46;48.46
68248;SHT30;55064;49.636;12.164;2022-09-02T09:24:02;18.70;49.01
68248;SHT30;55064;49.636;12.164;2022-09-02T09:26:33;18.95;49.63
68248;SHT30;55064;49.636;12.164;2022-09-02T09:29:05;18.88;49.15
68248;SHT30;55064;49.636;12.164;2022-09-02T09:31:36;18.88;47.96
68248;SHT30;55064;49.636;12.164;2022-09-02T09:36:52;19.07;49.31
68248;SHT30;55064;49.636;12.164;2022-09-02T09:39:29;19.37;48.21
68248;SHT30;55064;49.636;12.164;2022-09-02T09:42:00;19.39;47.93
68248;SHT30;55064;49.636;12.164;2022-09-02T09:44:45;19.04;48.16
68248;SHT30;55064;49.636;12.164;2022-09-02T09:47:21;19.37;47.45
68248;SHT30;55064;49.636;12.164;2022-09-02T09:50:12;18.94;48.22
68248;SHT30;55064;49.636;12.164;2022-09-02T09:52:40;18.44;49.69
68248;SHT30;55064;49.636;12.164;2022-09-02T09:57:38;19.18;48.01
68248;SHT30;55064;49.636;12.164;2022-09-02T10:02:53;19.84;47.28
68248;SHT30;55064;49.636;12.164;2022-09-02T10:13:34;19.88;46.06
68248;SHT30;55064;49.636;12.164;2022-09-02T10:33:24;19.73;46.05
68248;SHT30;55064;49.636;12.164;2022-09-02T10:36:23;19.71;45.67
68248;SHT30;55064;49.636;12.164;2022-09-02T10:39:06;19.57;46.59
68248;SHT30;55064;49.636;12.164;2022-09-02T10:41:38;19.73;45.78
68248;SHT30;55064;49.636;12.164;2022-09-02T10:46:48;19.67;45.59
68248;SHT30;55064;49.636;12.164;2022-09-02T10:49:30;20.14;44.62
68248;SHT30;55064;49.636;12.164;2022-09-02T10:54:48;20.28;43.84
68248;SHT30;55064;49.636;12.164;2022-09-02T10:57:42;19.85;43.44
68248;SHT30;55064;49.636;12.164;2022-09-02T11:00:19;20.05;44.24
68248;SHT30;55064;49.636;12.164;2022-09-02T11:03:09;20.28;43.28
68248;SHT30;55064;49.636;12.164;2022-09-02T11:05:49;20.04;44.51
68248;SHT30;55064;49.636;12.164;2022-09-02T11:08:52;19.98;44.74
68248;SHT30;55064;49.636;12.164;2022-09-02T11:14:33;19.73;44.10
68248;SHT30;55064;49.636;12.164;2022-09-02T11:16:59;19.77;44.03
68248;SHT30;55064;49.636;12.164;2022-09-02T11:25:14;20.00;43.44
68248;SHT30;55064;49.636;12.164;2022-09-02T11:27:51;20.33;43.79
68248;SHT30;55064;49.636;12.164;2022-09-02T11:30:20;19.87;44.14
68248;SHT30;55064;49.636;12.164;2022-09-02T11:33:13;20.49;44.14
68248;SHT30;55064;49.636;12.164;2022-09-02T11:35:39;20.25;44.05
68248;SHT30;55064;49.636;12.164;2022-09-02T11:38:46;19.92;44.15
68248;SHT30;55064;49.636;12.164;2022-09-02T11:55:45;20.81;42.47
68248;SHT30;55064;49.636;12.164;2022-09-02T11:58:31;20.24;43.11
68248;SHT30;55064;49.636;12.164;2022-09-02T12:03:28;20.93;42.25
68248;SHT30;55064;49.636;12.164;2022-09-02T12:06:14;21.72;41.05
68248;SHT30;55064;49.636;12.164;2022-09-02T12:11:32;21.76;39.45
68248;SHT30;55064;49.636;12.164;2022-09-02T12:13:58;21.84;39.27
68248;SHT30;55064;49.636;12.164;2022-09-02T12:16:57;21.83;40.10
68248;SHT30;55064;49.636;12.164;2022-09-02T12:19:38;21.80;40.05
68248;SHT30;55064;49.636;12.164;2022-09-02T12:22:30;21.21;40.20
68248;SHT30;55064;49.636;12.164;2022-09-02T12:25:00;21.41;41.22
68248;SHT30;55064;49.636;12.164;2022-09-02T12:27:33;21.39;41.00
68248;SHT30;55064;49.636;12.164;2022-09-02T12:30:07;21.20;40.81
68248;SHT30;55064;49.636;12.164;2022-09-02T12:38:29;20.88;40.49
68248;SHT30;55064;49.636;12.164;2022-09-02T12:43:30;21.42;39.59
68248;SHT30;55064;49.636;12.164;2022-09-02T12:48:57;21.77;40.39
68248;SHT30;55064;49.636;12.164;2022-09-02T12:54:17;21.49;41.70
68248;SHT30;55064;49.636;12.164;2022-09-02T12:56:47;21.02;41.91
68248;SHT30;55064;49.636;12.164;2022-09-02T12:59:28;20.66;41.88
68248;SHT30;55064;49.636;12.164;2022-09-02T13:05:00;20.90;40.88
68248;SHT30;55064;49.636;12.164;2022-09-02T13:16:10;21.22;40.51
68248;SHT30;55064;49.636;12.164;2022-09-02T13:18:41;21.38;40.71
68248;SHT30;55064;49.636;12.164;2022-09-02T13:24:03;21.42;39.97
68248;SHT30;55064;49.636;12.164;2022-09-02T13:34:43;20.98;40.67
68248;SHT30;55064;49.636;12.164;2022-09-02T13:37:53;21.32;40.71
68248;SHT30;55064;49.636;12.164;2022-09-02T13:42:55;21.60;40.11
68248;SHT30;55064;49.636;12.164;2022-09-02T13:45:28;21.11;40.54
68248;SHT30;55064;49.636;12.164;2022-09-02T13:47:57;21.24;40.61
68248;SHT30;55064;49.636;12.164;2022-09-02T13:50:28;21.39;40.05
68248;SHT30;55064;49.636;12.164;2022-09-02T13:53:04;21.41;39.51
68248;SHT30;55064;49.636;12.164;2022-09-02T13:55:31;21.77;39.54
68248;SHT30;55064;49.636;12.164;2022-09-02T13:58:00;22.20;38.83
68248;SHT30;55064;49.636;12.164;2022-09-02T14:00:38;21.96;38.82
68248;SHT30;55064;49.636;12.164;2022-09-02T14:03:12;21.56;40.77
68248;SHT30;55064;49.636;12.164;2022-09-02T14:05:40;21.10;40.79
68248;SHT30;55064;49.636;12.164;2022-09-02T14:08:13;21.77;39.92
68248;SHT30;55064;49.636;12.164;2022-09-02T14:10:41;21.14;40.03
68248;SHT30;55064;49.636;12.164;2022-09-02T14:13:09;21.52;39.80
68248;SHT30;55064;49.636;12.164;2022-09-02T14:15:34;21.45;39.29
68248;SHT30;55064;49.636;12.164;2022-09-02T14:18:16;21.79;38.94
68248;SHT30;55064;49.636;12.164;2022-09-02T14:23:27;22.05;38.51
68248;SHT30;55064;49.636;12.164;2022-09-02T14:25:55;21.94;38.08
68248;SHT30;55064;49.636;12.164;2022-09-02T14:28:32;21.89;37.86
68248;SHT30;55064;49.636;12.164;2022-09-02T14:31:03;22.08;38.62
68248;SHT30;55064;49.636;12.164;2022-09-02T14:36:07;21.41;39.48
68248;SHT30;55064;49.636;12.164;2022-09-02T14:38:51;22.01;38.44
68248;SHT30;55064;49.636;12.164;2022-09-02T14:41:22;21.98;38.82
68248;SHT30;55064;49.636;12.164;2022-09-02T14:43:58;22.11;37.95
68248;SHT30;55064;49.636;12.164;2022-09-02T14:46:27;21.89;38.53
68248;SHT30;55064;49.636;12.164;2022-09-02T14:49:06;21.97;38.39
68248;SHT30;55064;49.636;12.164;2022-09-02T14:53:57;22.37;38.65
68248;SHT30;55064;49.636;12.164;2022-09-02T14:56:44;21.66;39.64
68248;SHT30;55064;49.636;12.164;2022-09-02T14:59:12;21.48;39.90
68248;SHT30;55064;49.636;12.164;2022-09-02T15:01:45;21.77;40.51
68248;SHT30;55064;49.636;12.164;2022-09-02T15:04:12;21.67;39.57
68248;SHT30;55064;49.636;12.164;2022-09-02T15:06:39;21.20;40.26
68248;SHT30;55064;49.636;12.164;2022-09-02T15:09:09;21.56;39.92
68248;SHT30;55064;49.636;12.164;2022-09-02T15:11:39;20.95;39.97
68248;SHT30;55064;49.636;12.164;2022-09-02T15:14:05;21.00;40.60
68248;SHT30;55064;49.636;12.164;2022-09-02T15:16:31;20.88;40.79
68248;SHT30;55064;49.636;12.164;2022-09-02T15:18:56;21.17;40.82
68248;SHT30;55064;49.636;12.164;2022-09-02T15:21:21;20.94;40.77
68248;SHT30;55064;49.636;12.164;2022-09-02T15:23:47;21.29;40.35
68248;SHT30;55064;49.636;12.164;2022-09-02T15:26:14;21.66;40.46
68248;SHT30;55064;49.636;12.164;2022-09-02T15:28:40;21.86;39.71
68248;SHT30;55064;49.636;12.164;2022-09-02T15:31:06;21.59;40.33
68248;SHT30;55064;49.636;12.164;2022-09-02T15:33:35;21.41;40.67
68248;SHT30;55064;49.636;12.164;2022-09-02T15:36:12;21.57;40.39
68248;SHT30;55064;49.636;12.164;2022-09-02T15:38:40;21.32;40.92
68248;SHT30;55064;49.636;12.164;2022-09-02T15:41:15;21.43;40.13
68248;SHT30;55064;49.636;12.164;2022-09-02T15:43:41;20.98;40.53
68248;SHT30;55064;49.636;12.164;2022-09-02T15:46:29;20.95;40.42
68248;SHT30;55064;49.636;12.164;2022-09-02T15:48:59;21.01;40.66
68248;SHT30;55064;49.636;12.164;2022-09-02T15:51:26;20.67;40.55
68248;SHT30;55064;49.636;12.164;2022-09-02T15:54:04;21.02;41.08
68248;SHT30;55064;49.636;12.164;2022-09-02T15:56:31;20.87;40.87
68248;SHT30;55064;49.636;12.164;2022-09-02T15:58:59;20.77;41.32
68248;SHT30;55064;49.636;12.164;2022-09-02T16:01:30;20.56;42.39
68248;SHT30;55064;49.636;12.164;2022-09-02T16:03:59;20.81;42.22
68248;SHT30;55064;49.636;12.164;2022-09-02T16:06:27;20.73;42.11
68248;SHT30;55064;49.636;12.164;2022-09-02T16:08:55;20.50;42.55
68248;SHT30;55064;49.636;12.164;2022-09-02T16:11:23;20.65;42.39
68248;SHT30;55064;49.636;12.164;2022-09-02T16:13:49;20.84;42.23
68248;SHT30;55064;49.636;12.164;2022-09-02T16:16:15;20.52;42.00
68248;SHT30;55064;49.636;12.164;2022-09-02T16:18:41;20.45;42.05
68248;SHT30;55064;49.636;12.164;2022-09-02T16:21:08;20.62;42.03
68248;SHT30;55064;49.636;12.164;2022-09-02T16:23:34;20.46;42.00
68248;SHT30;55064;49.636;12.164;2022-09-02T16:26:22;20.43;41.61
68248;SHT30;55064;49.636;12.164;2022-09-02T16:28:50;20.30;42.23
68248;SHT30;55064;49.636;12.164;2022-09-02T16:31:19;20.33;42.70
68248;SHT30;55064;49.636;12.164;2022-09-02T16:36:17;20.49;42.36
68248;SHT30;55064;49.636;12.164;2022-09-02T16:38:42;20.33;42.99
68248;SHT30;55064;49.636;12.164;2022-09-02T16:43:50;19.95;43.04
68248;SHT30;55064;49.636;12.164;2022-09-02T16:46:18;20.08;43.10
68248;SHT30;55064;49.636;12.164;2022-09-02T16:48:44;19.91;43.12
68248;SHT30;55064;49.636;12.164;2022-09-02T16:51:09;19.88;43.29
68248;SHT30;55064;49.636;12.164;2022-09-02T16:53:34;19.97;43.42
68248;SHT30;55064;49.636;12.164;2022-09-02T16:56:03;19.87;43.50
68248;SHT30;55064;49.636;12.164;2022-09-02T16:58:29;19.95;43.60
68248;SHT30;55064;49.636;12.164;2022-09-02T17:00:55;19.83;43.71
68248;SHT30;55064;49.636;12.164;2022-09-02T17:03:22;19.81;43.79
68248;SHT30;55064;49.636;12.164;2022-09-02T17:05:50;19.78;43.85
68248;SHT30;55064;49.636;12.164;2022-09-02T17:08:16;19.56;43.54
68248;SHT30;55064;49.636;12.164;2022-09-02T17:10:44;19.52;44.14
68248;SHT30;55064;49.636;12.164;2022-09-02T17:13:09;19.46;44.10
68248;SHT30;55064;49.636;12.164;2022-09-02T17:15:35;19.40;44.33
68248;SHT30;55064;49.636;12.164;2022-09-02T17:18:00;19.39;44.52
68248;SHT30;55064;49.636;12.164;2022-09-02T17:20:25;19.40;45.03
68248;SHT30;55064;49.636;12.164;2022-09-02T17:22:54;19.35;45.07
68248;SHT30;55064;49.636;12.164;2022-09-02T17:25:20;19.35;45.19
68248;SHT30;55064;49.636;12.164;2022-09-02T17:27:46;19.18;45.67
68248;SHT30;55064;49.636;12.164;2022-09-02T17:30:11;19.09;45.97
68248;SHT30;55064;49.636;12.164;2022-09-02T17:32:38;18.98;46.27
68248;SHT30;55064;49.636;12.164;2022-09-02T17:35:04;19.02;46.40
68248;SHT30;55064;49.636;12.164;2022-09-02T17:37:32;18.85;46.66
68248;SHT30;55064;49.636;12.164;2022-09-02T17:40:03;18.83;47.06
68248;SHT30;55064;49.636;12.164;2022-09-02T17:42:29;18.73;47.06
68248;SHT30;55064;49.636;12.164;2022-09-02T17:44:55;18.70;47.36
68248;SHT30;55064;49.636;12.164;2022-09-02T17:47:23;18.68;47.72
68248;SHT30;55064;49.636;12.164;2022-09-02T17:49:50;18.57;47.66